Time;durP1;ratioP1;P1;durP2;ratioP2;P2;SDS_P1;SDS_P2;PMS_P1;PMS_P2;Temp;Humidity;BMP_temperature;BMP_pressure;BME280_temperature;BME280_humidity;BME280_pressure;Samples;Min_cycle;Max_cycle;Signal;HPM_P1;HPM_P2
2022/07/28 00:01:42;;;;;;;3.20;2.00;;;23.00;44.50;24.20;101087.00;;;;5089258;28;20248;-44
2022/07/28 00:04:07;;;;;;;2.30;2.00;;;23.00;44.60;24.20;101095.00;;;;5088870;28;20208;-44
2022/07/28 00:06:33;;;;;;;2.57;2.00;;;23.00;44.70;24.20;101085.00;;;;5070929;28;20173;-44
2022/07/28 00:08:59;;;;;;;2.80;1.60;;;23.00;44.80;24.10;101081.00;;;;5088663;28;20203;-44
2022/07/28 00:11:24;;;;;;;3.40;2.00;;;23.00;44.90;24.10;101075.00;;;;5089231;28;20160;-44
2022/07/28 00:13:50;;;;;;;2.27;1.70;;;22.90;44.90;24.10;101081.00;;;;5089453;28;20168;-44
2022/07/28 00:16:16;;;;;;;3.20;1.90;;;22.90;44.90;24.10;101080.00;;;;5089201;28;20218;-44
2022/07/28 00:18:42;;;;;;;3.97;1.90;;;22.90;44.90;24.00;101073.00;;;;5088878;28;20690;-45
2022/07/28 00:21:08;;;;;;;2.60;1.80;;;22.90;45.10;24.00;101079.00;;;;5071571;28;20196;-44
2022/07/28 00:23:33;;;;;;;2.10;1.60;;;22.90;45.00;24.00;101085.00;;;;5089621;28;20211;-44
2022/07/28 00:25:59;;;;;;;2.77;1.90;;;22.90;45.10;24.00;101078.00;;;;5091684;28;20242;-44
2022/07/28 00:28:25;;;;;;;1.70;1.60;;;22.80;45.00;24.00;101072.00;;;;5089999;28;20238;-44
2022/07/28 00:30:53;;;;;;;2.00;1.70;;;22.80;45.10;23.90;101070.00;;;;5091053;28;20169;-44
2022/07/28 00:33:18;;;;;;;2.47;1.70;;;22.70;45.10;23.90;101065.00;;;;5092773;28;20176;-44
2022/07/28 00:35:44;;;;;;;3.53;2.00;;;22.70;45.30;23.90;101059.00;;;;5093122;28;20169;-43
2022/07/28 00:38:10;;;;;;;3.43;1.90;;;22.60;45.30;23.80;101066.00;;;;5092427;28;20200;-44
2022/07/28 00:43:20;;;;;;;2.93;2.07;;;22.60;45.50;23.70;101061.00;;;;5098078;28;20203;-44
2022/07/28 00:45:46;;;;;;;2.53;1.83;;;22.60;45.40;23.70;101060.00;;;;5095541;28;20165;-43
2022/07/28 00:48:12;;;;;;;2.03;1.80;;;22.70;46.10;23.70;101058.00;;;;5092956;28;20193;-44
2022/07/28 00:50:38;;;;;;;3.93;2.20;;;22.60;45.40;23.70;101063.00;;;;5097466;28;20176;-45
2022/07/28 00:53:04;;;;;;;2.87;1.83;;;22.60;45.40;23.70;101056.00;;;;5107414;28;20647;-45
2022/07/28 00:55:30;;;;;;;2.13;1.70;;;22.60;45.40;23.70;101047.00;;;;5055187;28;20254;-44
2022/07/28 00:57:55;;;;;;;5.50;2.10;;;22.60;45.50;23.70;101048.00;;;;5092439;28;20641;-43
2022/07/28 01:00:21;;;;;;;2.10;1.80;;;22.60;46.20;23.60;101048.00;;;;5074603;28;20244;-43
2022/07/28 01:02:47;;;;;;;3.30;2.00;;;22.60;45.60;23.60;101043.00;;;;5092458;28;20204;-44
2022/07/28 01:05:13;;;;;;;4.23;2.03;;;22.50;45.60;23.60;101043.00;;;;5074477;28;20165;-44
2022/07/28 01:07:58;;;;;;;2.70;1.80;;;22.50;45.60;23.60;101043.00;;;;5057418;28;20193;-44
2022/07/28 01:10:41;;;;;;;2.60;1.87;;;22.50;45.60;23.60;101043.00;;;;5076153;28;20723;-44
2022/07/28 01:13:21;;;;;;;2.40;1.90;;;22.50;45.60;23.60;101040.00;;;;5058859;28;20765;-44
2022/07/28 01:16:01;;;;;;;2.53;1.80;;;22.50;45.60;23.50;101038.00;;;;5059134;28;20211;-44
2022/07/28 01:18:51;;;;;;;5.40;1.90;;;22.40;45.70;23.50;101019.00;;;;5041704;28;20228;-44
2022/07/28 01:21:22;;;;;;;1.90;1.70;;;22.40;45.80;23.50;101031.00;;;;5023172;28;20261;-45
2022/07/28 01:24:29;;;;;;;3.30;1.90;;;22.30;45.80;23.40;101041.00;;;;5058581;28;20198;-46
2022/07/28 01:27:08;;;;;;;2.93;1.80;;;22.30;46.00;23.40;101040.00;;;;5068390;28;20275;-45
2022/07/28 01:30:20;;;;;;;2.07;1.67;;;22.30;46.00;23.40;101045.00;;;;5042170;28;20158;-45
2022/07/28 01:32:54;;;;;;;3.37;1.87;;;22.30;46.00;23.30;101046.00;;;;5057221;28;20786;-45
2022/07/28 01:35:25;;;;;;;2.47;1.70;;;22.30;46.20;23.30;101027.00;;;;5060898;28;20165;-44
2022/07/28 01:37:54;;;;;;;3.30;1.90;;;22.20;46.10;23.30;101037.00;;;;5057406;28;20250;-44
2022/07/28 01:40:24;;;;;;;2.40;1.93;;;22.20;46.20;23.30;101038.00;;;;5057520;28;20169;-44
2022/07/28 01:42:55;;;;;;;2.37;1.70;;;22.10;46.00;23.20;101029.00;;;;5057286;28;20189;-44
2022/07/28 01:45:21;;;;;;;4.10;1.93;;;22.10;46.20;23.20;101034.00;;;;5058181;28;20202;-44
2022/07/28 01:47:47;;;;;;;2.97;2.00;;;22.10;46.30;23.10;101033.00;;;;5040217;28;20566;-44
2022/07/28 01:50:15;;;;;;;3.47;1.80;;;22.00;46.50;23.10;101031.00;;;;5057444;28;20169;-45
2022/07/28 01:52:41;;;;;;;3.47;2.00;;;22.00;46.60;23.10;101036.00;;;;5040770;28;20173;-44
2022/07/28 01:55:08;;;;;;;3.70;1.83;;;21.90;46.60;23.10;101019.00;;;;5057083;28;20699;-44
2022/07/28 01:57:34;;;;;;;2.77;1.83;;;22.00;46.60;23.00;101026.00;;;;5074346;28;20709;-43
2022/07/28 02:00:00;;;;;;;4.10;2.00;;;22.00;46.60;23.00;101031.00;;;;5041068;28;20184;-45
2022/07/28 02:02:27;;;;;;;3.00;2.13;;;21.90;46.50;23.00;101019.00;;;;5077036;28;20672;-44
2022/07/28 02:04:52;;;;;;;2.30;1.90;;;22.00;46.60;23.00;101013.00;;;;5059170;28;20169;-45
2022/07/28 02:07:18;;;;;;;3.80;2.10;;;22.00;46.50;23.00;101023.00;;;;5056845;28;20235;-45
2022/07/28 02:09:44;;;;;;;2.90;2.03;;;22.00;46.60;23.00;101025.00;;;;5040404;28;20242;-45
2022/07/28 02:12:10;;;;;;;3.70;1.80;;;22.00;46.70;23.00;101016.00;;;;5073263;28;20180;-46
2022/07/28 02:14:36;;;;;;;2.30;1.80;;;21.90;46.70;23.00;101014.00;;;;5056656;28;20183;-45
2022/07/28 02:17:11;;;;;;;3.37;2.00;;;21.90;46.80;23.00;101008.00;;;;5056334;28;20252;-44
2022/07/28 02:19:38;;;;;;;3.77;2.00;;;21.90;46.90;22.90;101015.00;;;;5091209;28;20208;-44
2022/07/28 02:22:03;;;;;;;3.87;1.73;;;21.90;46.90;22.90;101001.00;;;;5056992;28;20169;-44
2022/07/28 02:24:29;;;;;;;4.23;2.00;;;21.80;46.90;22.90;101002.00;;;;5074935;28;20176;-44
2022/07/28 02:27:03;;;;;;;3.90;1.90;;;21.80;47.00;22.90;101001.00;;;;5041498;28;20172;-44
2022/07/28 02:29:30;;;;;;;2.47;1.70;;;21.80;47.10;22.90;100996.00;;;;5057902;28;20165;-44
2022/07/28 02:32:11;;;;;;;2.97;1.90;;;21.80;47.20;22.80;101004.00;;;;5056593;28;20176;-44
2022/07/28 02:34:37;;;;;;;2.57;1.73;;;21.80;47.10;22.80;101001.00;;;;5058288;28;20252;-45
2022/07/28 02:37:03;;;;;;;4.00;1.90;;;21.70;47.80;22.80;100988.00;;;;5072850;28;20208;-44
2022/07/28 02:39:47;;;;;;;3.47;2.13;;;21.70;47.20;22.80;100994.00;;;;5039162;28;20203;-45
2022/07/28 02:42:16;;;;;;;3.23;2.00;;;21.70;47.20;22.80;100998.00;;;;5025059;28;20521;-44
2022/07/28 02:44:59;;;;;;;2.10;1.90;;;21.70;47.20;22.80;100987.00;;;;5090558;28;20649;-44
2022/07/28 02:47:27;;;;;;;1.97;1.80;;;21.70;47.20;22.70;100983.00;;;;5058088;28;20662;-44
2022/07/28 02:49:54;;;;;;;3.23;1.70;;;21.70;47.20;22.70;100980.00;;;;5073073;28;20200;-45
2022/07/28 02:52:22;;;;;;;3.07;1.93;;;21.70;47.20;22.70;100981.00;;;;5072825;28;20596;-45
2022/07/28 02:54:48;;;;;;;3.17;1.83;;;21.70;47.20;22.70;100979.00;;;;5072395;28;20619;-45
2022/07/28 02:57:13;;;;;;;3.40;2.17;;;21.70;47.30;22.70;100991.00;;;;5055543;28;20690;-44
2022/07/28 02:59:39;;;;;;;2.80;1.97;;;21.70;47.40;22.70;100990.00;;;;5055628;28;20228;-45
2022/07/28 03:02:05;;;;;;;4.10;1.90;;;21.60;47.50;22.60;100984.00;;;;5055786;28;20233;-44
2022/07/28 03:07:15;;;;;;;1.70;1.60;;;21.60;47.60;22.60;100984.00;;;;5091980;28;20195;-45
2022/07/28 03:09:44;;;;;;;2.47;1.80;;;21.60;47.60;22.60;100976.00;;;;5075985;28;20216;-44
2022/07/28 03:12:10;;;;;;;2.20;1.80;;;21.60;47.70;22.60;100980.00;;;;5094499;28;20188;-44
2022/07/28 03:14:36;;;;;;;3.07;1.97;;;21.50;47.70;22.50;100981.00;;;;5092537;28;20173;-44
2022/07/28 03:17:02;;;;;;;2.47;1.97;;;21.50;47.80;22.50;100980.00;;;;5090208;28;20221;-44
2022/07/28 03:19:28;;;;;;;2.80;1.90;;;21.40;47.80;22.50;100983.00;;;;5090058;28;20200;-44
2022/07/28 03:21:54;;;;;;;2.50;1.80;;;21.50;47.90;22.50;100975.00;;;;5089982;28;20204;-44
2022/07/28 03:24:23;;;;;;;3.67;1.90;;;21.40;47.80;22.40;100977.00;;;;5089941;28;20179;-44
2022/07/28 03:27:15;;;;;;;3.60;2.00;;;21.40;47.90;22.40;100980.00;;;;5059581;28;20168;-43
2022/07/28 03:29:41;;;;;;;4.63;2.20;;;21.30;48.10;22.30;100978.00;;;;5075377;28;20185;-44
2022/07/28 03:32:07;;;;;;;3.27;2.00;;;21.30;48.90;22.30;100981.00;;;;5071916;28;20183;-45
2022/07/28 03:34:33;;;;;;;3.20;2.17;;;21.20;48.30;22.30;100979.00;;;;5072081;28;20169;-44
2022/07/28 03:37:11;;;;;;;4.97;1.97;;;21.20;48.30;22.20;100979.00;;;;5055737;28;20248;-43
2022/07/28 03:39:45;;;;;;;6.80;1.90;;;21.20;48.60;22.20;100975.00;;;;5057317;28;20598;-44
2022/07/28 03:42:11;;;;;;;3.40;1.90;;;21.10;48.90;22.20;100980.00;;;;5062877;28;20176;-45
2022/07/28 03:44:38;;;;;;;2.73;1.90;;;21.20;49.00;22.20;100976.00;;;;5081291;28;20188;-44
2022/07/28 03:47:04;;;;;;;5.40;2.00;;;21.20;48.80;22.20;100979.00;;;;5071098;28;20235;-44
2022/07/28 03:49:30;;;;;;;3.87;1.90;;;21.10;48.70;22.10;100992.00;;;;5086687;28;20192;-44
2022/07/28 03:51:56;;;;;;;2.27;1.97;;;21.10;48.80;22.10;100986.00;;;;5089058;28;20781;-44
2022/07/28 03:54:22;;;;;;;4.57;2.17;;;21.10;48.90;22.10;100992.00;;;;5089556;28;20256;-44
2022/07/28 03:56:47;;;;;;;2.90;2.17;;;21.10;48.90;22.10;100915.00;;;;5094635;28;20467;-44
2022/07/28 03:59:13;;;;;;;2.00;1.80;;;21.10;48.90;22.10;100992.00;;;;5091423;28;20193;-44
2022/07/28 04:01:39;;;;;;;3.47;2.10;;;21.00;48.80;22.10;100985.00;;;;5088216;28;20176;-44
2022/07/28 04:04:05;;;;;;;3.50;1.80;;;21.10;49.00;22.10;100985.00;;;;5088251;28;20218;-44
2022/07/28 04:06:30;;;;;;;3.23;2.00;;;21.10;49.10;22.00;100996.00;;;;5092150;28;20169;-43
2022/07/28 04:08:56;;;;;;;2.17;1.97;;;21.10;49.10;22.00;100991.00;;;;5098094;28;20203;-44
2022/07/28 04:11:22;;;;;;;4.97;2.17;;;21.00;49.00;22.00;100991.00;;;;5097389;28;20164;-44
2022/07/28 04:13:48;;;;;;;7.47;2.20;;;21.10;49.10;22.10;100992.00;;;;5088936;28;20262;-44
2022/07/28 04:16:13;;;;;;;2.97;2.10;;;21.10;48.90;22.10;100987.00;;;;5088581;28;20634;-44
2022/07/28 04:18:39;;;;;;;2.90;1.97;;;21.00;48.80;22.10;100990.00;;;;5088618;28;20208;-44
2022/07/28 04:21:05;;;;;;;2.80;1.93;;;21.10;48.80;22.10;100993.00;;;;5088700;28;20184;-45
2022/07/28 04:23:31;;;;;;;3.80;1.83;;;21.10;48.60;22.10;100993.00;;;;5088693;28;20172;-44
2022/07/28 04:25:57;;;;;;;2.80;1.80;;;21.10;48.30;22.10;100986.00;;;;5088673;28;20164;-45
2022/07/28 04:28:23;;;;;;;2.00;1.80;;;21.20;48.40;22.10;100966.00;;;;5088789;28;20200;-45
2022/07/28 04:30:49;;;;;;;2.70;1.90;;;21.20;48.30;22.10;100990.00;;;;5088386;28;20176;-45
2022/07/28 04:33:14;;;;;;;2.73;1.90;;;21.20;48.30;22.10;100989.00;;;;5088750;28;20719;-45
2022/07/28 04:35:40;;;;;;;2.53;1.90;;;21.20;48.50;22.10;100993.00;;;;5089248;28;20528;-44
2022/07/28 04:38:06;;;;;;;2.40;2.20;;;21.20;48.50;22.10;100993.00;;;;5088456;28;20192;-44
2022/07/28 04:40:33;;;;;;;3.10;2.07;;;21.20;48.50;22.10;100998.00;;;;5088695;28;20251;-44
2022/07/28 04:42:59;;;;;;;3.10;1.90;;;21.20;48.50;22.10;100988.00;;;;5088719;28;20263;-44
2022/07/28 04:45:25;;;;;;;3.50;2.10;;;21.20;48.60;22.10;101006.00;;;;5088178;28;20180;-43
2022/07/28 04:47:52;;;;;;;4.13;2.30;;;21.20;48.60;22.10;100993.00;;;;5069977;28;20188;-44
2022/07/28 04:50:20;;;;;;;4.13;2.10;;;21.20;48.70;22.10;100995.00;;;;5088182;28;20168;-45
2022/07/28 04:52:48;;;;;;;2.50;1.90;;;21.20;48.80;22.10;100997.00;;;;5088522;28;20173;-44
2022/07/28 04:55:13;;;;;;;4.40;2.10;;;21.20;48.80;22.10;100992.00;;;;5088574;28;20172;-44
2022/07/28 04:57:39;;;;;;;2.10;1.80;;;21.10;48.50;22.10;100997.00;;;;5088451;28;20195;-43
2022/07/28 05:00:12;;;;;;;3.47;2.07;;;21.10;48.60;22.10;100990.00;;;;5088890;28;20176;-44
2022/07/28 05:02:39;;;;;;;2.20;2.00;;;21.10;48.50;22.10;100999.00;;;;5089102;28;20166;-44
2022/07/28 05:05:05;;;;;;;3.13;2.20;;;21.20;48.70;22.10;101000.00;;;;5088753;28;20171;-44
2022/07/28 05:07:31;;;;;;;4.07;1.97;;;21.10;48.50;22.10;100985.00;;;;5088488;28;20285;-43
2022/07/28 05:09:56;;;;;;;3.93;2.10;;;21.10;48.70;22.10;100999.00;;;;5087047;28;20631;-44
2022/07/28 05:12:22;;;;;;;3.10;1.97;;;21.10;48.90;22.10;101002.00;;;;5087899;28;20179;-44
2022/07/28 05:14:48;;;;;;;2.47;1.90;;;21.10;48.90;22.00;100991.00;;;;5088392;28;20177;-44
2022/07/28 05:17:14;;;;;;;3.00;2.00;;;21.10;48.90;22.00;100991.00;;;;5089046;28;20192;-45
2022/07/28 05:19:39;;;;;;;3.67;2.00;;;21.10;48.90;22.00;100988.00;;;;5091816;28;20200;-45
2022/07/28 05:22:05;;;;;;;4.30;2.10;;;21.00;48.80;22.00;100986.00;;;;5091704;28;20654;-45
2022/07/28 05:24:31;;;;;;;2.97;2.17;;;21.00;48.80;22.00;100985.00;;;;5092010;28;20168;-45
2022/07/28 05:26:57;;;;;;;4.03;2.20;;;21.00;49.00;22.00;100985.00;;;;5091674;28;20631;-45
2022/07/28 05:29:23;;;;;;;2.30;1.80;;;21.10;49.00;22.00;100985.00;;;;5090726;28;20179;-43
2022/07/28 05:31:49;;;;;;;4.77;1.90;;;21.00;49.10;22.00;100975.00;;;;5096074;28;20652;-45
2022/07/28 05:34:15;;;;;;;3.30;2.20;;;21.00;49.10;22.00;100975.00;;;;5093285;28;20180;-44
2022/07/28 05:36:40;;;;;;;4.20;2.03;;;21.00;49.20;22.00;100985.00;;;;5092593;28;20178;-43
2022/07/28 05:39:06;;;;;;;3.00;2.13;;;21.00;49.10;21.90;100969.00;;;;5091399;28;20235;-44
2022/07/28 05:41:32;;;;;;;5.17;2.00;;;21.00;49.30;21.90;100980.00;;;;5090875;28;20164;-44
2022/07/28 05:44:00;;;;;;;5.63;2.03;;;21.00;49.30;21.90;100982.00;;;;5091549;28;20397;-44
2022/07/28 05:46:26;;;;;;;5.27;2.27;;;21.00;49.50;21.90;100982.00;;;;5091278;28;20252;-44
2022/07/28 05:48:52;;;;;;;3.70;2.30;;;21.00;49.60;21.90;100985.00;;;;5091425;28;20188;-44
2022/07/28 05:51:18;;;;;;;2.47;2.20;;;20.90;49.60;21.90;100968.00;;;;5091327;28;20168;-44
2022/07/28 05:53:43;;;;;;;2.90;2.07;;;20.90;49.60;21.80;100977.00;;;;5091262;28;20676;-44
2022/07/28 05:56:09;;;;;;;4.23;2.10;;;20.90;49.80;21.80;100989.00;;;;5091199;28;20192;-44
2022/07/28 05:58:35;;;;;;;3.77;1.90;;;20.90;49.70;21.80;100986.00;;;;5091205;28;20784;-43
2022/07/28 06:01:01;;;;;;;3.73;2.10;;;20.90;50.00;21.80;100978.00;;;;5090691;28;20625;-45
2022/07/28 06:03:31;;;;;;;3.07;2.10;;;20.90;49.90;21.80;100982.00;;;;5091302;28;20772;-45
2022/07/28 06:05:56;;;;;;;2.87;2.00;;;20.90;49.70;21.80;100981.00;;;;5090837;28;20659;-44
2022/07/28 06:08:25;;;;;;;3.20;2.10;;;20.90;49.60;21.80;100983.00;;;;5090776;28;20328;-44
2022/07/28 06:10:57;;;;;;;4.53;2.20;;;20.90;49.70;21.80;100991.00;;;;5090795;28;20188;-45
2022/07/28 06:13:23;;;;;;;3.13;1.97;;;20.90;49.80;21.80;100986.00;;;;5090881;28;20176;-44
2022/07/28 06:15:51;;;;;;;2.57;2.00;;;20.90;49.40;21.80;100993.00;;;;5090870;28;20182;-44
2022/07/28 06:18:18;;;;;;;2.20;2.00;;;20.90;49.60;21.80;100983.00;;;;5090569;28;20207;-44
2022/07/28 06:20:45;;;;;;;2.87;1.90;;;20.90;49.70;21.80;100991.00;;;;5090296;28;20163;-44
2022/07/28 06:23:11;;;;;;;2.73;2.00;;;20.90;50.00;21.80;100995.00;;;;5090707;28;20645;-45
2022/07/28 06:25:37;;;;;;;3.50;1.90;;;20.90;49.90;21.80;100985.00;;;;5090789;28;20254;-44
2022/07/28 06:28:03;;;;;;;2.80;2.10;;;20.90;50.10;21.80;100991.00;;;;5090142;28;20220;-44
2022/07/28 06:30:29;;;;;;;2.23;1.80;;;20.90;50.20;21.70;100992.00;;;;5090514;28;20193;-45
2022/07/28 06:32:55;;;;;;;2.33;2.00;;;20.90;50.10;21.70;100988.00;;;;5090854;28;20777;-45
2022/07/28 06:35:21;;;;;;;3.03;2.00;;;20.80;50.10;21.70;100985.00;;;;5090698;28;20168;-45
2022/07/28 06:37:48;;;;;;;3.57;1.90;;;20.90;50.20;21.70;100985.00;;;;5092977;28;20404;-44
2022/07/28 06:40:14;;;;;;;4.03;2.03;;;20.90;50.20;21.70;100982.00;;;;5102296;28;20191;-45
2022/07/28 06:42:40;;;;;;;3.17;1.93;;;20.90;50.10;21.70;100976.00;;;;5103372;28;20172;-45
2022/07/28 06:45:07;;;;;;;3.10;2.10;;;20.90;50.40;21.70;100978.00;;;;5093402;28;20172;-44
2022/07/28 06:47:32;;;;;;;2.60;2.07;;;20.80;50.50;21.70;100985.00;;;;5090252;28;20249;-44
2022/07/28 06:49:58;;;;;;;3.87;2.33;;;20.80;50.50;21.70;100980.00;;;;5090405;28;20173;-44
2022/07/28 06:52:24;;;;;;;3.27;2.00;;;20.80;50.70;21.70;100989.00;;;;5090628;28;20594;-44
2022/07/28 06:54:51;;;;;;;3.07;2.00;;;20.80;50.50;21.70;100978.00;;;;5088967;28;20187;-44
2022/07/28 06:57:18;;;;;;;2.77;2.10;;;20.90;50.40;21.70;100980.00;;;;5071800;28;20196;-44
2022/07/28 06:59:45;;;;;;;1.97;1.87;;;20.90;50.30;21.60;100982.00;;;;5088768;28;20227;-44
2022/07/28 07:02:11;;;;;;;2.97;2.10;;;20.90;50.30;21.60;100973.00;;;;5092880;28;20228;-44
2022/07/28 07:04:37;;;;;;;1.83;1.70;;;20.90;50.30;21.60;100986.00;;;;5090378;28;21090;-45
2022/07/28 07:07:03;;;;;;;2.97;2.00;;;20.90;50.50;21.60;100981.00;;;;5089879;28;20165;-44
2022/07/28 07:09:29;;;;;;;3.70;2.13;;;20.90;50.60;21.60;100991.00;;;;5089431;28;20718;-47
2022/07/28 07:11:55;;;;;;;3.47;2.20;;;20.90;50.80;21.50;100988.00;;;;5106284;28;20183;-44
2022/07/28 07:14:21;;;;;;;2.07;1.90;;;20.90;51.00;21.50;100985.00;;;;5108280;28;20240;-44
2022/07/28 07:16:46;;;;;;;3.17;2.17;;;20.80;50.90;21.50;100985.00;;;;5095520;28;20177;-44
2022/07/28 07:19:12;;;;;;;2.37;1.90;;;20.80;50.90;21.50;100985.00;;;;5089094;28;20212;-44
2022/07/28 07:21:38;;;;;;;3.60;2.30;;;20.90;50.90;21.50;100992.00;;;;5089517;28;20169;-43
2022/07/28 07:24:04;;;;;;;4.07;2.20;;;20.90;51.00;21.50;100991.00;;;;5090940;28;20183;-44
2022/07/28 07:26:30;;;;;;;3.30;2.00;;;20.80;51.10;21.50;100977.00;;;;5091572;28;20180;-44
2022/07/28 07:28:55;;;;;;;3.07;2.10;;;20.80;51.00;21.40;100974.00;;;;5090031;28;20551;-43
2022/07/28 07:31:21;;;;;;;3.90;2.20;;;20.80;51.10;21.40;100982.00;;;;5090704;28;20201;-44
2022/07/28 07:33:47;;;;;;;2.93;2.00;;;20.80;51.40;21.40;100982.00;;;;5090503;28;20640;-44
2022/07/28 07:36:12;;;;;;;2.60;2.00;;;20.80;51.10;21.40;100973.00;;;;5089878;28;20205;-44
2022/07/28 07:38:38;;;;;;;6.23;2.10;;;20.80;51.30;21.40;100978.00;;;;5089381;28;20201;-44
2022/07/28 07:41:04;;;;;;;4.53;2.07;;;20.80;51.50;21.40;100975.00;;;;5078396;28;20190;-45
2022/07/28 07:43:30;;;;;;;2.23;1.93;;;20.70;51.40;21.40;100969.00;;;;5019593;28;20177;-44
2022/07/28 07:45:55;;;;;;;4.77;2.20;;;20.70;51.30;21.50;100967.00;;;;5073271;28;20212;-43
2022/07/28 07:48:21;;;;;;;3.33;2.00;;;20.70;51.30;21.50;100963.00;;;;5078859;28;20197;-48
2022/07/28 07:50:47;;;;;;;4.97;2.43;;;20.80;51.40;21.50;100961.00;;;;5072618;28;20257;-44
2022/07/28 07:53:13;;;;;;;3.33;2.00;;;20.80;51.60;21.50;100955.00;;;;5068782;28;20276;-44
2022/07/28 07:55:39;;;;;;;2.83;2.10;;;20.80;51.70;21.50;100964.00;;;;5067699;28;20180;-44
2022/07/28 07:58:05;;;;;;;3.67;2.17;;;20.80;51.70;21.50;100966.00;;;;5067839;28;20343;-43
2022/07/28 08:00:30;;;;;;;2.47;1.87;;;20.80;51.70;21.50;100960.00;;;;5068188;28;20174;-44
2022/07/28 08:02:57;;;;;;;2.47;1.90;;;20.80;51.70;21.50;100955.00;;;;5068476;28;20201;-44
2022/07/28 08:05:23;;;;;;;3.47;2.00;;;20.80;51.80;21.50;100960.00;;;;5069496;28;20176;-43
2022/07/28 08:07:49;;;;;;;3.30;2.00;;;20.80;51.70;21.60;100956.00;;;;5068394;28;20667;-44
2022/07/28 08:10:15;;;;;;;2.73;2.00;;;20.80;51.60;21.60;100951.00;;;;5068315;28;20201;-43
2022/07/28 08:12:40;;;;;;;2.97;1.90;;;20.80;51.50;21.60;100961.00;;;;5068926;28;20172;-44
2022/07/28 08:15:08;;;;;;;2.87;2.00;;;20.80;51.60;21.60;100962.00;;;;5069124;28;20229;-43
2022/07/28 08:17:33;;;;;;;3.00;2.10;;;20.90;51.70;21.60;100958.00;;;;5068666;28;20840;-44
2022/07/28 08:20:01;;;;;;;3.13;2.00;;;20.90;51.70;21.60;100959.00;;;;5068696;28;20192;-43
2022/07/28 08:22:26;;;;;;;4.80;2.20;;;21.00;51.60;21.70;100956.00;;;;5068467;28;20646;-44
2022/07/28 08:24:52;;;;;;;3.93;2.17;;;21.00;51.60;21.70;100950.00;;;;5051056;28;20172;-43
2022/07/28 08:27:18;;;;;;;2.20;2.00;;;21.00;51.60;21.70;100951.00;;;;5069867;28;20196;-44
2022/07/28 08:29:44;;;;;;;2.60;2.00;;;21.00;51.40;21.70;100958.00;;;;5085879;28;20617;-44
2022/07/28 08:32:09;;;;;;;5.87;2.17;;;21.00;51.50;21.70;100949.00;;;;5067844;28;20214;-44
2022/07/28 08:34:35;;;;;;;2.10;1.80;;;21.00;51.40;21.70;100948.00;;;;5070013;28;20212;-44
2022/07/28 08:37:02;;;;;;;3.70;2.10;;;21.10;51.60;21.70;100953.00;;;;5072033;28;20577;-45
2022/07/28 08:39:30;;;;;;;3.40;2.10;;;21.00;51.50;21.80;100956.00;;;;5067774;28;20192;-43
2022/07/28 08:42:12;;;;;;;4.10;1.90;;;21.00;51.30;21.80;100947.00;;;;5017885;28;20200;-43
2022/07/28 08:45:02;;;;;;;3.83;2.23;;;21.10;51.30;21.80;100954.00;;;;5048719;28;20234;-43
2022/07/28 08:47:30;;;;;;;3.33;2.13;;;21.10;51.40;21.80;100953.00;;;;5046582;28;20376;-44
2022/07/28 08:49:58;;;;;;;2.73;2.07;;;21.10;51.40;21.80;100938.00;;;;5088454;28;20179;-44
2022/07/28 08:52:26;;;;;;;3.47;2.20;;;21.00;51.10;21.80;100933.00;;;;5091085;28;20180;-44
2022/07/28 08:54:52;;;;;;;2.23;1.97;;;21.10;51.10;21.80;100938.00;;;;5073302;28;20184;-44
2022/07/28 08:57:21;;;;;;;3.87;2.10;;;21.10;51.10;21.80;100940.00;;;;5073383;28;20214;-44
2022/07/28 08:59:48;;;;;;;3.23;1.90;;;21.10;51.10;21.90;100935.00;;;;5073605;28;20200;-45
2022/07/28 09:02:14;;;;;;;4.40;1.97;;;21.20;51.20;21.90;100938.00;;;;5091640;28;20328;-44
2022/07/28 09:04:40;;;;;;;4.50;2.10;;;21.20;51.20;21.90;100932.00;;;;5091683;28;20293;-44
2022/07/28 09:07:06;;;;;;;3.90;2.20;;;21.20;51.80;21.90;100934.00;;;;5073301;28;20272;-44
2022/07/28 09:09:32;;;;;;;3.97;2.10;;;21.10;51.70;21.90;100919.00;;;;5068111;28;20203;-44
2022/07/28 09:12:01;;;;;;;3.40;1.97;;;21.20;51.60;21.90;100932.00;;;;5071881;28;20237;-44
2022/07/28 09:14:27;;;;;;;2.90;2.10;;;21.20;51.20;21.90;100929.00;;;;5071906;28;20184;-43
2022/07/28 09:16:52;;;;;;;3.07;1.90;;;21.20;51.20;21.90;100923.00;;;;5067361;28;20183;-43
2022/07/28 09:19:18;;;;;;;4.30;1.97;;;21.20;51.20;21.90;100916.00;;;;5070856;28;20209;-45
2022/07/28 09:21:44;;;;;;;4.87;1.97;;;21.20;50.80;22.00;100917.00;;;;5071139;28;20235;-43
2022/07/28 09:24:10;;;;;;;2.73;1.90;;;21.20;49.90;22.00;100921.00;;;;5069199;28;20177;-43
2022/07/28 09:26:35;;;;;;;3.67;1.80;;;21.20;50.10;22.00;100922.00;;;;5059197;28;20670;-44
2022/07/28 09:29:03;;;;;;;3.43;2.10;;;21.20;50.10;22.00;100921.00;;;;5070643;28;20224;-43
2022/07/28 09:31:29;;;;;;;2.53;1.97;;;21.20;50.20;22.00;100915.00;;;;5071515;28;20835;-43
2022/07/28 09:34:02;;;;;;;2.53;1.97;;;21.20;49.40;22.00;100925.00;;;;5069289;28;20189;-43
2022/07/28 09:36:36;;;;;;;2.03;1.80;;;21.20;49.60;22.00;100924.00;;;;5071228;28;20180;-43
2022/07/28 09:39:03;;;;;;;4.83;2.00;;;21.20;50.10;22.00;100919.00;;;;5084394;28;20201;-44
2022/07/28 09:41:33;;;;;;;4.33;1.90;;;21.30;49.80;22.00;100915.00;;;;5025846;28;20184;-44
2022/07/28 09:43:58;;;;;;;4.10;1.97;;;21.30;50.10;22.10;100909.00;;;;5047846;28;20246;-43
2022/07/28 09:46:24;;;;;;;3.67;2.00;;;21.40;49.90;22.10;100903.00;;;;5070952;28;20177;-43
2022/07/28 09:48:57;;;;;;;2.97;2.20;;;21.40;50.00;22.10;100912.00;;;;5071480;28;20196;-44
2022/07/28 09:51:29;;;;;;;6.97;2.33;;;21.40;50.20;22.10;100912.00;;;;5065330;28;20307;-44
2022/07/28 09:54:12;;;;;;;4.50;1.97;;;21.40;50.00;22.20;100917.00;;;;5072957;28;20234;-44
2022/07/28 09:56:41;;;;;;;3.27;2.10;;;21.40;49.90;22.20;100910.00;;;;5054990;28;20532;-44
2022/07/28 09:59:07;;;;;;;2.50;1.80;;;21.40;49.70;22.20;100911.00;;;;5072657;28;20209;-44
2022/07/28 10:01:48;;;;;;;3.30;1.97;;;21.50;49.60;22.20;100895.00;;;;5054099;28;20223;-44
2022/07/28 10:04:14;;;;;;;2.33;2.00;;;21.50;49.60;22.20;100898.00;;;;5056308;28;20289;-44
2022/07/28 10:06:39;;;;;;;3.43;2.00;;;21.60;49.70;22.20;100894.00;;;;5055316;28;20172;-45
2022/07/28 10:09:13;;;;;;;2.87;1.80;;;21.60;49.60;22.30;100893.00;;;;5072947;28;20193;-44
2022/07/28 10:11:38;;;;;;;3.03;2.00;;;21.60;49.70;22.30;100896.00;;;;5073083;28;20268;-45
2022/07/28 10:14:07;;;;;;;3.57;1.90;;;21.60;50.40;22.20;100892.00;;;;5073000;28;20240;-45
2022/07/28 10:16:43;;;;;;;3.70;2.03;;;21.60;49.50;22.30;100890.00;;;;5072303;28;20666;-44
2022/07/28 10:19:08;;;;;;;3.03;1.90;;;21.60;49.70;22.30;100887.00;;;;5072200;28;20200;-42
2022/07/28 10:21:41;;;;;;;3.03;2.00;;;21.60;49.20;22.40;100883.00;;;;5072977;28;20177;-44
2022/07/28 10:24:07;;;;;;;2.30;2.00;;;21.50;49.20;22.40;100883.00;;;;5055347;28;20179;-44
2022/07/28 10:26:43;;;;;;;4.43;2.00;;;21.60;49.10;22.40;100888.00;;;;5038453;28;20173;-43
2022/07/28 10:29:14;;;;;;;4.60;2.40;;;21.70;49.40;22.40;100885.00;;;;5072044;28;20196;-44
2022/07/28 10:31:51;;;;;;;7.30;2.00;;;21.80;49.80;22.40;100870.00;;;;5074030;28;20226;-44
2022/07/28 10:34:45;;;;;;;3.13;2.00;;;21.80;49.00;22.50;100884.00;;;;5081850;28;20161;-45
2022/07/28 10:37:19;;;;;;;2.93;2.30;;;21.80;48.90;22.50;100880.00;;;;5073284;28;20193;-44
2022/07/28 10:40:02;;;;;;;2.80;2.00;;;21.90;49.50;22.50;100876.00;;;;5062273;28;20734;-44
2022/07/28 10:42:28;;;;;;;3.07;2.00;;;21.80;48.70;22.50;100868.00;;;;5038231;28;20257;-44
2022/07/28 10:44:53;;;;;;;3.60;2.10;;;21.80;49.20;22.60;100865.00;;;;5053952;28;20166;-45
2022/07/28 10:47:20;;;;;;;3.40;1.90;;;21.90;49.80;22.60;100861.00;;;;5054028;28;20280;-45
2022/07/28 10:49:47;;;;;;;3.03;1.90;;;22.00;49.30;22.60;100851.00;;;;5056542;28;20189;-43
2022/07/28 10:52:16;;;;;;;4.70;2.10;;;22.00;49.80;22.70;100850.00;;;;5074712;28;20177;-44
2022/07/28 10:54:50;;;;;;;4.27;1.90;;;22.10;50.00;22.70;100863.00;;;;5056002;28;20169;-43
2022/07/28 10:57:16;;;;;;;3.53;2.10;;;22.00;48.60;22.70;100836.00;;;;5056724;28;20685;-44